Terminal Aerodrome Forecast
Issued by NWS

Home | Current Version | Previous Version | Text Only | Print | Product List | Glossary On
Versions: 1 2 3 4 5 6 7 8 9 10 11 12 13 14 15 16 17 18 19 20 21 22 23 24 25 26 27 28 29
000
FTUS41 KALY 171000 AAE
TAFPSF
TAF AMD
KPSF 171002Z 1710/1806 00000KT 1/2SM FG VV002
      TEMPO 1710/1713 1/4SM FG VV001
     FM171300 VRB03KT 6SM BR FEW006
     FM171500 27006KT P6SM FEW050
     FM172300 25004KT P6SM FEW150=

USA.gov is the U.S. government's official web portal to all federal, state and local government web resources and services.